sensor_id;sensor_type;location;lat;lon;timestamp;P1;durP1;ratioP1;P2;durP2;ratioP2
64682;SDS011;51107;47.652;19.016;2023-03-23T00:02:25;2.40;;;1.77;;
64682;SDS011;51107;47.652;19.016;2023-03-23T00:04:56;1.85;;;1.42;;
64682;SDS011;51107;47.652;19.016;2023-03-23T00:07:23;7.10;;;2.33;;
64682;SDS011;51107;47.652;19.016;2023-03-23T00:09:54;4.85;;;1.67;;
64682;SDS011;51107;47.652;19.016;2023-03-23T00:12:23;3.08;;;1.92;;
64682;SDS011;51107;47.652;19.016;2023-03-23T00:14:55;5.07;;;2.42;;
64682;SDS011;51107;47.652;19.016;2023-03-23T00:17:23;4.93;;;1.95;;
64682;SDS011;51107;47.652;19.016;2023-03-23T00:19:51;7.43;;;2.62;;
64682;SDS011;51107;47.652;19.016;2023-03-23T00:22:18;3.15;;;1.60;;
64682;SDS011;51107;47.652;19.016;2023-03-23T00:24:48;2.20;;;1.45;;
64682;SDS011;51107;47.652;19.016;2023-03-23T00:27:18;2.97;;;1.95;;
64682;SDS011;51107;47.652;19.016;2023-03-23T00:29:49;3.22;;;1.92;;
64682;SDS011;51107;47.652;19.016;2023-03-23T00:32:20;2.83;;;1.50;;
64682;SDS011;51107;47.652;19.016;2023-03-23T00:34:56;1.50;;;1.23;;
64682;SDS011;51107;47.652;19.016;2023-03-23T00:37:25;2.03;;;1.37;;
64682;SDS011;51107;47.652;19.016;2023-03-23T00:39:53;2.05;;;1.23;;
64682;SDS011;51107;47.652;19.016;2023-03-23T00:42:24;6.30;;;1.42;;
64682;SDS011;51107;47.652;19.016;2023-03-23T00:44:51;2.40;;;1.30;;
64682;SDS011;51107;47.652;19.016;2023-03-23T00:47:27;2.37;;;1.45;;
64682;SDS011;51107;47.652;19.016;2023-03-23T00:49:54;8.73;;;1.58;;
64682;SDS011;51107;47.652;19.016;2023-03-23T00:52:22;2.90;;;1.83;;
64682;SDS011;51107;47.652;19.016;2023-03-23T00:54:50;4.07;;;1.60;;
64682;SDS011;51107;47.652;19.016;2023-03-23T00:57:17;3.87;;;1.27;;
64682;SDS011;51107;47.652;19.016;2023-03-23T00:59:44;2.58;;;1.85;;
64682;SDS011;51107;47.652;19.016;2023-03-23T01:02:12;2.58;;;1.48;;
64682;SDS011;51107;47.652;19.016;2023-03-23T01:04:40;5.12;;;2.45;;
64682;SDS011;51107;47.652;19.016;2023-03-23T01:07:11;4.43;;;1.50;;
64682;SDS011;51107;47.652;19.016;2023-03-23T01:09:44;2.22;;;1.30;;
64682;SDS011;51107;47.652;19.016;2023-03-23T01:12:12;3.17;;;2.00;;
64682;SDS011;51107;47.652;19.016;2023-03-23T01:14:39;3.45;;;1.52;;
64682;SDS011;51107;47.652;19.016;2023-03-23T01:17:08;2.45;;;1.80;;
64682;SDS011;51107;47.652;19.016;2023-03-23T01:19:35;5.87;;;1.77;;
64682;SDS011;51107;47.652;19.016;2023-03-23T01:22:04;2.40;;;1.27;;
64682;SDS011;51107;47.652;19.016;2023-03-23T01:24:31;3.05;;;2.15;;
64682;SDS011;51107;47.652;19.016;2023-03-23T01:26:58;2.97;;;1.67;;
64682;SDS011;51107;47.652;19.016;2023-03-23T01:29:28;4.28;;;1.30;;
64682;SDS011;51107;47.652;19.016;2023-03-23T01:31:55;3.72;;;1.45;;
64682;SDS011;51107;47.652;19.016;2023-03-23T01:34:23;4.55;;;1.77;;
64682;SDS011;51107;47.652;19.016;2023-03-23T01:36:50;3.30;;;2.15;;
64682;SDS011;51107;47.652;19.016;2023-03-23T01:39:17;3.00;;;2.12;;
64682;SDS011;51107;47.652;19.016;2023-03-23T01:41:45;4.45;;;2.00;;
64682;SDS011;51107;47.652;19.016;2023-03-23T01:46:43;3.97;;;2.17;;
64682;SDS011;51107;47.652;19.016;2023-03-23T01:49:19;5.45;;;1.55;;
64682;SDS011;51107;47.652;19.016;2023-03-23T01:51:53;4.68;;;1.83;;
64682;SDS011;51107;47.652;19.016;2023-03-23T01:54:23;2.95;;;2.05;;
64682;SDS011;51107;47.652;19.016;2023-03-23T01:56:59;2.20;;;1.58;;
64682;SDS011;51107;47.652;19.016;2023-03-23T01:59:31;3.53;;;1.33;;
64682;SDS011;51107;47.652;19.016;2023-03-23T02:02:01;2.60;;;1.58;;
64682;SDS011;51107;47.652;19.016;2023-03-23T02:04:29;1.60;;;1.25;;
64682;SDS011;51107;47.652;19.016;2023-03-23T02:06:57;2.60;;;1.65;;
64682;SDS011;51107;47.652;19.016;2023-03-23T02:09:25;2.03;;;1.67;;
64682;SDS011;51107;47.652;19.016;2023-03-23T02:11:53;2.10;;;1.50;;
64682;SDS011;51107;47.652;19.016;2023-03-23T02:14:21;1.30;;;1.12;;
64682;SDS011;51107;47.652;19.016;2023-03-23T02:23:18;4.28;;;1.73;;
64682;SDS011;51107;47.652;19.016;2023-03-23T02:29:10;3.40;;;1.67;;
64682;SDS011;51107;47.652;19.016;2023-03-23T02:34:35;6.35;;;2.40;;
64682;SDS011;51107;47.652;19.016;2023-03-23T02:37:13;3.40;;;1.77;;
64682;SDS011;51107;47.652;19.016;2023-03-23T02:39:49;3.12;;;2.17;;
64682;SDS011;51107;47.652;19.016;2023-03-23T02:42:21;2.55;;;1.70;;
64682;SDS011;51107;47.652;19.016;2023-03-23T02:44:53;1.35;;;1.15;;
64682;SDS011;51107;47.652;19.016;2023-03-23T02:47:24;2.87;;;1.87;;
64682;SDS011;51107;47.652;19.016;2023-03-23T02:49:54;2.75;;;1.87;;
64682;SDS011;51107;47.652;19.016;2023-03-23T02:52:24;3.65;;;1.90;;
64682;SDS011;51107;47.652;19.016;2023-03-23T02:54:55;1.95;;;1.20;;
64682;SDS011;51107;47.652;19.016;2023-03-23T02:57:25;1.52;;;1.42;;
64682;SDS011;51107;47.652;19.016;2023-03-23T02:59:54;3.22;;;1.62;;
64682;SDS011;51107;47.652;19.016;2023-03-23T03:02:25;1.75;;;1.30;;
64682;SDS011;51107;47.652;19.016;2023-03-23T03:05:01;2.97;;;1.45;;
64682;SDS011;51107;47.652;19.016;2023-03-23T03:10:23;2.15;;;1.55;;
64682;SDS011;51107;47.652;19.016;2023-03-23T03:18:34;2.28;;;1.60;;
64682;SDS011;51107;47.652;19.016;2023-03-23T03:21:11;2.53;;;1.60;;
64682;SDS011;51107;47.652;19.016;2023-03-23T03:23:42;2.90;;;1.52;;
64682;SDS011;51107;47.652;19.016;2023-03-23T03:26:11;2.83;;;1.67;;
64682;SDS011;51107;47.652;19.016;2023-03-23T03:28:44;5.30;;;1.77;;
64682;SDS011;51107;47.652;19.016;2023-03-23T03:31:15;5.25;;;1.87;;
64682;SDS011;51107;47.652;19.016;2023-03-23T03:33:46;4.90;;;1.87;;
64682;SDS011;51107;47.652;19.016;2023-03-23T03:36:14;3.35;;;1.77;;
64682;SDS011;51107;47.652;19.016;2023-03-23T03:38:48;4.85;;;2.37;;
64682;SDS011;51107;47.652;19.016;2023-03-23T03:41:17;2.40;;;1.48;;
64682;SDS011;51107;47.652;19.016;2023-03-23T03:43:46;3.83;;;1.45;;
64682;SDS011;51107;47.652;19.016;2023-03-23T03:46:13;3.92;;;1.60;;
64682;SDS011;51107;47.652;19.016;2023-03-23T03:48:40;2.67;;;2.00;;
64682;SDS011;51107;47.652;19.016;2023-03-23T03:51:07;3.67;;;2.15;;
64682;SDS011;51107;47.652;19.016;2023-03-23T03:53:36;2.03;;;1.55;;
64682;SDS011;51107;47.652;19.016;2023-03-23T03:56:03;5.57;;;1.70;;
64682;SDS011;51107;47.652;19.016;2023-03-23T03:58:32;2.87;;;1.73;;
64682;SDS011;51107;47.652;19.016;2023-03-23T04:01:03;3.50;;;1.35;;
64682;SDS011;51107;47.652;19.016;2023-03-23T04:03:31;2.70;;;1.55;;
64682;SDS011;51107;47.652;19.016;2023-03-23T04:05:58;1.60;;;1.33;;
64682;SDS011;51107;47.652;19.016;2023-03-23T04:08:26;1.85;;;1.42;;
64682;SDS011;51107;47.652;19.016;2023-03-23T04:10:54;5.97;;;1.23;;
64682;SDS011;51107;47.652;19.016;2023-03-23T04:13:21;3.60;;;2.28;;
64682;SDS011;51107;47.652;19.016;2023-03-23T04:15:50;7.72;;;2.08;;
64682;SDS011;51107;47.652;19.016;2023-03-23T04:18:18;3.87;;;2.75;;
64682;SDS011;51107;47.652;19.016;2023-03-23T04:20:47;2.12;;;1.58;;
64682;SDS011;51107;47.652;19.016;2023-03-23T04:23:17;2.62;;;1.70;;
64682;SDS011;51107;47.652;19.016;2023-03-23T04:25:49;5.22;;;3.08;;
64682;SDS011;51107;47.652;19.016;2023-03-23T04:28:18;5.72;;;2.70;;
64682;SDS011;51107;47.652;19.016;2023-03-23T04:30:52;3.00;;;1.92;;
64682;SDS011;51107;47.652;19.016;2023-03-23T04:33:22;3.95;;;2.85;;
64682;SDS011;51107;47.652;19.016;2023-03-23T04:35:53;5.12;;;2.85;;
64682;SDS011;51107;47.652;19.016;2023-03-23T04:38:22;3.47;;;2.30;;
64682;SDS011;51107;47.652;19.016;2023-03-23T04:40:52;6.30;;;3.78;;
64682;SDS011;51107;47.652;19.016;2023-03-23T04:43:22;2.53;;;2.15;;
64682;SDS011;51107;47.652;19.016;2023-03-23T04:45:54;3.92;;;2.70;;
64682;SDS011;51107;47.652;19.016;2023-03-23T04:48:23;4.40;;;2.97;;
64682;SDS011;51107;47.652;19.016;2023-03-23T04:50:53;4.07;;;2.40;;
64682;SDS011;51107;47.652;19.016;2023-03-23T04:53:21;3.35;;;2.58;;
64682;SDS011;51107;47.652;19.016;2023-03-23T04:55:49;5.97;;;2.95;;
64682;SDS011;51107;47.652;19.016;2023-03-23T04:58:16;4.10;;;2.55;;
64682;SDS011;51107;47.652;19.016;2023-03-23T05:00:44;5.00;;;3.25;;
64682;SDS011;51107;47.652;19.016;2023-03-23T05:03:16;5.93;;;3.10;;
64682;SDS011;51107;47.652;19.016;2023-03-23T05:05:47;6.87;;;3.20;;
64682;SDS011;51107;47.652;19.016;2023-03-23T05:08:19;5.22;;;2.87;;
64682;SDS011;51107;47.652;19.016;2023-03-23T05:10:54;4.20;;;2.17;;
64682;SDS011;51107;47.652;19.016;2023-03-23T05:13:24;8.27;;;2.78;;
64682;SDS011;51107;47.652;19.016;2023-03-23T05:15:52;4.90;;;2.67;;
64682;SDS011;51107;47.652;19.016;2023-03-23T05:18:19;3.45;;;2.12;;
64682;SDS011;51107;47.652;19.016;2023-03-23T05:20:50;3.05;;;2.08;;
64682;SDS011;51107;47.652;19.016;2023-03-23T05:23:19;4.30;;;2.25;;
64682;SDS011;51107;47.652;19.016;2023-03-23T05:25:54;3.03;;;2.12;;
64682;SDS011;51107;47.652;19.016;2023-03-23T05:28:23;3.53;;;3.00;;
64682;SDS011;51107;47.652;19.016;2023-03-23T05:30:51;4.03;;;2.33;;
64682;SDS011;51107;47.652;19.016;2023-03-23T05:33:19;5.47;;;2.25;;
64682;SDS011;51107;47.652;19.016;2023-03-23T05:35:48;9.63;;;2.22;;
64682;SDS011;51107;47.652;19.016;2023-03-23T05:38:16;4.43;;;2.33;;
64682;SDS011;51107;47.652;19.016;2023-03-23T05:40:43;2.10;;;1.70;;
64682;SDS011;51107;47.652;19.016;2023-03-23T05:43:11;4.00;;;3.15;;
64682;SDS011;51107;47.652;19.016;2023-03-23T05:45:39;4.30;;;2.62;;
64682;SDS011;51107;47.652;19.016;2023-03-23T05:48:06;3.20;;;2.47;;
64682;SDS011;51107;47.652;19.016;2023-03-23T05:50:34;4.20;;;2.55;;
64682;SDS011;51107;47.652;19.016;2023-03-23T05:53:03;2.50;;;2.03;;
64682;SDS011;51107;47.652;19.016;2023-03-23T05:55:32;4.47;;;1.73;;
64682;SDS011;51107;47.652;19.016;2023-03-23T05:58:00;3.42;;;2.03;;
64682;SDS011;51107;47.652;19.016;2023-03-23T06:00:28;4.93;;;3.08;;
64682;SDS011;51107;47.652;19.016;2023-03-23T06:02:58;4.18;;;2.50;;
64682;SDS011;51107;47.652;19.016;2023-03-23T06:05:26;3.12;;;1.98;;
64682;SDS011;51107;47.652;19.016;2023-03-23T06:07:55;3.03;;;2.33;;
64682;SDS011;51107;47.652;19.016;2023-03-23T06:10:23;4.40;;;2.42;;
64682;SDS011;51107;47.652;19.016;2023-03-23T06:12:52;7.68;;;4.12;;
64682;SDS011;51107;47.652;19.016;2023-03-23T06:15:20;6.90;;;3.33;;
64682;SDS011;51107;47.652;19.016;2023-03-23T06:17:49;9.57;;;3.90;;
64682;SDS011;51107;47.652;19.016;2023-03-23T06:20:17;7.85;;;3.90;;
64682;SDS011;51107;47.652;19.016;2023-03-23T06:22:44;8.52;;;4.45;;
64682;SDS011;51107;47.652;19.016;2023-03-23T06:25:12;8.63;;;4.32;;
64682;SDS011;51107;47.652;19.016;2023-03-23T06:27:40;8.32;;;4.37;;
64682;SDS011;51107;47.652;19.016;2023-03-23T06:30:08;4.72;;;2.97;;
64682;SDS011;51107;47.652;19.016;2023-03-23T06:32:36;5.70;;;2.75;;
64682;SDS011;51107;47.652;19.016;2023-03-23T06:35:08;6.15;;;3.42;;
64682;SDS011;51107;47.652;19.016;2023-03-23T06:37:38;6.07;;;3.33;;
64682;SDS011;51107;47.652;19.016;2023-03-23T06:40:06;4.60;;;2.92;;
64682;SDS011;51107;47.652;19.016;2023-03-23T06:42:36;5.45;;;2.87;;
64682;SDS011;51107;47.652;19.016;2023-03-23T06:45:06;6.45;;;3.17;;
64682;SDS011;51107;47.652;19.016;2023-03-23T06:47:35;5.28;;;3.55;;
64682;SDS011;51107;47.652;19.016;2023-03-23T06:50:02;7.45;;;3.65;;
64682;SDS011;51107;47.652;19.016;2023-03-23T06:52:34;3.92;;;2.95;;
64682;SDS011;51107;47.652;19.016;2023-03-23T06:55:01;6.90;;;3.47;;
64682;SDS011;51107;47.652;19.016;2023-03-23T06:57:29;5.00;;;3.05;;
64682;SDS011;51107;47.652;19.016;2023-03-23T06:59:57;5.70;;;3.10;;
64682;SDS011;51107;47.652;19.016;2023-03-23T07:02:24;11.50;;;3.83;;
64682;SDS011;51107;47.652;19.016;2023-03-23T07:04:53;10.13;;;3.50;;
64682;SDS011;51107;47.652;19.016;2023-03-23T07:07:21;6.97;;;4.05;;
64682;SDS011;51107;47.652;19.016;2023-03-23T07:09:48;7.93;;;4.72;;
64682;SDS011;51107;47.652;19.016;2023-03-23T07:12:16;6.55;;;3.72;;
64682;SDS011;51107;47.652;19.016;2023-03-23T07:14:44;5.10;;;3.62;;
64682;SDS011;51107;47.652;19.016;2023-03-23T07:17:11;8.07;;;4.18;;
64682;SDS011;51107;47.652;19.016;2023-03-23T07:19:40;7.18;;;3.87;;
64682;SDS011;51107;47.652;19.016;2023-03-23T07:22:11;5.87;;;4.10;;
64682;SDS011;51107;47.652;19.016;2023-03-23T07:24:39;5.62;;;3.90;;
64682;SDS011;51107;47.652;19.016;2023-03-23T07:27:14;5.68;;;3.75;;
64682;SDS011;51107;47.652;19.016;2023-03-23T07:29:43;8.85;;;4.30;;
64682;SDS011;51107;47.652;19.016;2023-03-23T07:32:17;9.57;;;3.80;;
64682;SDS011;51107;47.652;19.016;2023-03-23T07:34:45;5.10;;;3.25;;
64682;SDS011;51107;47.652;19.016;2023-03-23T07:37:12;7.28;;;3.75;;
64682;SDS011;51107;47.652;19.016;2023-03-23T07:39:41;7.82;;;3.85;;
64682;SDS011;51107;47.652;19.016;2023-03-23T07:42:09;4.43;;;3.12;;
64682;SDS011;51107;47.652;19.016;2023-03-23T07:44:40;8.63;;;4.65;;
64682;SDS011;51107;47.652;19.016;2023-03-23T07:47:09;9.25;;;4.45;;
64682;SDS011;51107;47.652;19.016;2023-03-23T07:49:36;8.40;;;4.70;;
64682;SDS011;51107;47.652;19.016;2023-03-23T07:52:05;7.40;;;4.43;;
64682;SDS011;51107;47.652;19.016;2023-03-23T07:54:32;9.30;;;4.62;;
64682;SDS011;51107;47.652;19.016;2023-03-23T07:57:00;8.27;;;4.95;;
64682;SDS011;51107;47.652;19.016;2023-03-23T07:59:28;7.68;;;4.35;;
64682;SDS011;51107;47.652;19.016;2023-03-23T08:01:57;10.90;;;4.47;;
64682;SDS011;51107;47.652;19.016;2023-03-23T08:04:26;9.43;;;4.50;;
64682;SDS011;51107;47.652;19.016;2023-03-23T08:06:54;7.32;;;4.85;;
64682;SDS011;51107;47.652;19.016;2023-03-23T08:09:24;10.18;;;5.37;;
64682;SDS011;51107;47.652;19.016;2023-03-23T08:11:54;6.43;;;4.12;;
64682;SDS011;51107;47.652;19.016;2023-03-23T08:14:24;8.50;;;4.80;;
64682;SDS011;51107;47.652;19.016;2023-03-23T08:16:55;6.78;;;4.10;;
64682;SDS011;51107;47.652;19.016;2023-03-23T08:19:24;5.57;;;3.62;;
64682;SDS011;51107;47.652;19.016;2023-03-23T08:21:53;8.32;;;4.87;;
64682;SDS011;51107;47.652;19.016;2023-03-23T08:24:20;7.50;;;4.15;;
64682;SDS011;51107;47.652;19.016;2023-03-23T08:26:48;9.52;;;4.47;;
64682;SDS011;51107;47.652;19.016;2023-03-23T08:29:15;11.20;;;4.35;;
64682;SDS011;51107;47.652;19.016;2023-03-23T08:31:45;7.62;;;4.47;;
64682;SDS011;51107;47.652;19.016;2023-03-23T08:34:13;9.30;;;4.87;;
64682;SDS011;51107;47.652;19.016;2023-03-23T08:36:40;5.53;;;3.70;;
64682;SDS011;51107;47.652;19.016;2023-03-23T08:39:11;6.47;;;3.85;;
64682;SDS011;51107;47.652;19.016;2023-03-23T08:41:42;7.35;;;3.90;;
64682;SDS011;51107;47.652;19.016;2023-03-23T08:44:10;8.02;;;4.47;;
64682;SDS011;51107;47.652;19.016;2023-03-23T08:46:38;8.55;;;4.72;;
64682;SDS011;51107;47.652;19.016;2023-03-23T08:49:07;8.10;;;4.68;;
64682;SDS011;51107;47.652;19.016;2023-03-23T08:51:38;9.02;;;4.32;;
64682;SDS011;51107;47.652;19.016;2023-03-23T08:54:07;5.82;;;4.07;;
64682;SDS011;51107;47.652;19.016;2023-03-23T08:56:34;6.78;;;4.00;;
64682;SDS011;51107;47.652;19.016;2023-03-23T08:59:02;12.88;;;4.43;;
64682;SDS011;51107;47.652;19.016;2023-03-23T09:01:30;6.07;;;3.80;;
64682;SDS011;51107;47.652;19.016;2023-03-23T09:03:58;7.47;;;4.25;;
64682;SDS011;51107;47.652;19.016;2023-03-23T09:06:27;10.10;;;5.03;;
64682;SDS011;51107;47.652;19.016;2023-03-23T09:08:54;8.23;;;4.80;;
64682;SDS011;51107;47.652;19.016;2023-03-23T09:11:27;9.18;;;4.43;;
64682;SDS011;51107;47.652;19.016;2023-03-23T09:13:54;6.82;;;4.30;;
64682;SDS011;51107;47.652;19.016;2023-03-23T09:16:21;5.93;;;4.03;;
64682;SDS011;51107;47.652;19.016;2023-03-23T09:18:49;8.05;;;3.78;;
64682;SDS011;51107;47.652;19.016;2023-03-23T09:21:17;7.43;;;3.95;;
64682;SDS011;51107;47.652;19.016;2023-03-23T09:23:44;6.65;;;3.55;;
64682;SDS011;51107;47.652;19.016;2023-03-23T09:26:12;5.18;;;3.45;;
64682;SDS011;51107;47.652;19.016;2023-03-23T09:28:39;7.43;;;3.70;;
64682;SDS011;51107;47.652;19.016;2023-03-23T09:31:06;5.57;;;3.40;;
64682;SDS011;51107;47.652;19.016;2023-03-23T09:33:34;5.97;;;3.65;;
64682;SDS011;51107;47.652;19.016;2023-03-23T09:36:01;6.95;;;4.28;;
64682;SDS011;51107;47.652;19.016;2023-03-23T09:38:32;4.47;;;3.15;;
64682;SDS011;51107;47.652;19.016;2023-03-23T09:46:16;4.30;;;2.78;;
64682;SDS011;51107;47.652;19.016;2023-03-23T09:49:12;4.72;;;3.37;;
64682;SDS011;51107;47.652;19.016;2023-03-23T09:51:45;4.25;;;2.85;;
64682;SDS011;51107;47.652;19.016;2023-03-23T09:56:49;5.82;;;2.85;;
64682;SDS011;51107;47.652;19.016;2023-03-23T10:03:13;4.60;;;2.90;;
64682;SDS011;51107;47.652;19.016;2023-03-23T10:08:19;3.62;;;2.42;;
64682;SDS011;51107;47.652;19.016;2023-03-23T10:16:24;7.55;;;3.08;;
64682;SDS011;51107;47.652;19.016;2023-03-23T10:21:48;4.93;;;2.60;;
64682;SDS011;51107;47.652;19.016;2023-03-23T10:24:31;4.32;;;2.00;;
64682;SDS011;51107;47.652;19.016;2023-03-23T10:32:53;4.00;;;2.20;;
64682;SDS011;51107;47.652;19.016;2023-03-23T10:35:43;3.20;;;2.12;;
64682;SDS011;51107;47.652;19.016;2023-03-23T10:38:13;2.50;;;1.98;;
64682;SDS011;51107;47.652;19.016;2023-03-23T10:41:13;7.85;;;2.30;;
64682;SDS011;51107;47.652;19.016;2023-03-23T10:43:43;4.50;;;2.10;;
64682;SDS011;51107;47.652;19.016;2023-03-23T10:46:31;3.53;;;2.08;;
64682;SDS011;51107;47.652;19.016;2023-03-23T10:49:16;3.92;;;2.33;;
64682;SDS011;51107;47.652;19.016;2023-03-23T10:57:36;2.83;;;1.90;;
64682;SDS011;51107;47.652;19.016;2023-03-23T11:00:14;7.18;;;2.25;;
64682;SDS011;51107;47.652;19.016;2023-03-23T11:02:47;3.58;;;1.83;;
64682;SDS011;51107;47.652;19.016;2023-03-23T11:05:48;4.90;;;2.37;;
64682;SDS011;51107;47.652;19.016;2023-03-23T11:08:21;2.85;;;1.60;;
64682;SDS011;51107;47.652;19.016;2023-03-23T11:10:52;10.18;;;2.20;;
64682;SDS011;51107;47.652;19.016;2023-03-23T11:13:31;4.37;;;2.22;;
64682;SDS011;51107;47.652;19.016;2023-03-23T11:18:34;2.05;;;1.50;;
64682;SDS011;51107;47.652;19.016;2023-03-23T11:21:04;3.33;;;1.60;;
64682;SDS011;51107;47.652;19.016;2023-03-23T11:23:34;4.97;;;2.47;;
64682;SDS011;51107;47.652;19.016;2023-03-23T11:28:42;5.18;;;2.15;;
64682;SDS011;51107;47.652;19.016;2023-03-23T11:31:20;2.62;;;1.85;;
64682;SDS011;51107;47.652;19.016;2023-03-23T11:33:54;2.12;;;1.65;;
64682;SDS011;51107;47.652;19.016;2023-03-23T11:36:33;2.78;;;1.50;;
64682;SDS011;51107;47.652;19.016;2023-03-23T11:39:18;3.45;;;2.00;;
64682;SDS011;51107;47.652;19.016;2023-03-23T11:44:15;4.22;;;1.70;;
64682;SDS011;51107;47.652;19.016;2023-03-23T11:46:53;6.25;;;1.80;;
64682;SDS011;51107;47.652;19.016;2023-03-23T11:52:40;2.28;;;1.48;;
64682;SDS011;51107;47.652;19.016;2023-03-23T11:55:15;3.22;;;2.12;;
64682;SDS011;51107;47.652;19.016;2023-03-23T11:57:49;2.72;;;1.98;;
64682;SDS011;51107;47.652;19.016;2023-03-23T12:00:18;5.43;;;2.40;;
64682;SDS011;51107;47.652;19.016;2023-03-23T12:03:02;2.65;;;1.55;;
64682;SDS011;51107;47.652;19.016;2023-03-23T12:16:30;2.22;;;1.10;;
64682;SDS011;51107;47.652;19.016;2023-03-23T12:30:35;1.30;;;0.88;;
64682;SDS011;51107;47.652;19.016;2023-03-23T12:47:28;0.70;;;0.52;;
64682;SDS011;51107;47.652;19.016;2023-03-23T12:50:14;0.90;;;0.70;;
64682;SDS011;51107;47.652;19.016;2023-03-23T12:52:48;1.08;;;0.88;;
64682;SDS011;51107;47.652;19.016;2023-03-23T12:55:30;1.10;;;0.90;;
64682;SDS011;51107;47.652;19.016;2023-03-23T12:58:05;0.80;;;0.70;;
64682;SDS011;51107;47.652;19.016;2023-03-23T13:06:43;4.35;;;1.60;;
64682;SDS011;51107;47.652;19.016;2023-03-23T13:09:37;1.50;;;1.00;;
64682;SDS011;51107;47.652;19.016;2023-03-23T13:12:07;2.08;;;0.95;;
64682;SDS011;51107;47.652;19.016;2023-03-23T13:14:41;2.97;;;0.77;;
64682;SDS011;51107;47.652;19.016;2023-03-23T13:23:22;1.83;;;1.10;;
64682;SDS011;51107;47.652;19.016;2023-03-23T13:26:05;2.05;;;1.10;;
64682;SDS011;51107;47.652;19.016;2023-03-23T13:31:22;0.90;;;0.70;;
64682;SDS011;51107;47.652;19.016;2023-03-23T13:33:58;3.20;;;1.10;;
64682;SDS011;51107;47.652;19.016;2023-03-23T13:36:36;1.12;;;0.70;;
64682;SDS011;51107;47.652;19.016;2023-03-23T13:39:19;1.35;;;1.15;;
64682;SDS011;51107;47.652;19.016;2023-03-23T13:44:44;1.87;;;1.10;;
64682;SDS011;51107;47.652;19.016;2023-03-23T13:58:08;0.77;;;0.75;;
64682;SDS011;51107;47.652;19.016;2023-03-23T14:00:48;0.95;;;0.73;;
64682;SDS011;51107;47.652;19.016;2023-03-23T14:03:53;1.48;;;1.00;;
64682;SDS011;51107;47.652;19.016;2023-03-23T14:06:21;0.80;;;0.68;;
64682;SDS011;51107;47.652;19.016;2023-03-23T14:08:53;1.00;;;0.80;;
64682;SDS011;51107;47.652;19.016;2023-03-23T14:11:26;1.37;;;0.60;;
64682;SDS011;51107;47.652;19.016;2023-03-23T14:16:36;0.82;;;0.52;;
64682;SDS011;51107;47.652;19.016;2023-03-23T14:19:19;1.33;;;0.90;;
64682;SDS011;51107;47.652;19.016;2023-03-23T14:21:55;3.37;;;1.45;;
64682;SDS011;51107;47.652;19.016;2023-03-23T14:27:13;2.62;;;1.02;;
64682;SDS011;51107;47.652;19.016;2023-03-23T14:29:57;0.62;;;0.62;;
64682;SDS011;51107;47.652;19.016;2023-03-23T14:32:29;1.17;;;0.98;;
64682;SDS011;51107;47.652;19.016;2023-03-23T14:35:07;0.90;;;0.90;;
64682;SDS011;51107;47.652;19.016;2023-03-23T14:37:52;1.40;;;1.00;;
64682;SDS011;51107;47.652;19.016;2023-03-23T14:40:21;0.88;;;0.77;;
64682;SDS011;51107;47.652;19.016;2023-03-23T14:42:49;1.35;;;0.98;;
64682;SDS011;51107;47.652;19.016;2023-03-23T14:45:21;1.45;;;1.05;;
64682;SDS011;51107;47.652;19.016;2023-03-23T14:47:59;2.47;;;0.82;;
64682;SDS011;51107;47.652;19.016;2023-03-23T14:50:30;2.22;;;1.23;;
64682;SDS011;51107;47.652;19.016;2023-03-23T14:53:22;0.85;;;0.70;;
64682;SDS011;51107;47.652;19.016;2023-03-23T14:56:00;0.90;;;0.85;;
64682;SDS011;51107;47.652;19.016;2023-03-23T14:58:31;1.17;;;0.97;;
64682;SDS011;51107;47.652;19.016;2023-03-23T15:03:41;2.90;;;1.25;;
64682;SDS011;51107;47.652;19.016;2023-03-23T15:06:15;1.77;;;1.10;;
64682;SDS011;51107;47.652;19.016;2023-03-23T15:08:47;0.70;;;0.70;;
64682;SDS011;51107;47.652;19.016;2023-03-23T15:13:47;1.12;;;0.90;;
64682;SDS011;51107;47.652;19.016;2023-03-23T15:18:50;1.62;;;0.90;;
64682;SDS011;51107;47.652;19.016;2023-03-23T15:21:31;2.03;;;1.33;;
64682;SDS011;51107;47.652;19.016;2023-03-23T15:24:02;1.65;;;1.00;;
64682;SDS011;51107;47.652;19.016;2023-03-23T15:26:46;3.75;;;0.80;;
64682;SDS011;51107;47.652;19.016;2023-03-23T15:29:16;0.85;;;0.82;;
64682;SDS011;51107;47.652;19.016;2023-03-23T15:31:46;1.25;;;0.85;;
64682;SDS011;51107;47.652;19.016;2023-03-23T15:34:20;2.28;;;0.98;;
64682;SDS011;51107;47.652;19.016;2023-03-23T15:39:56;1.45;;;0.93;;
64682;SDS011;51107;47.652;19.016;2023-03-23T15:42:29;1.52;;;1.00;;
64682;SDS011;51107;47.652;19.016;2023-03-23T15:47:44;1.90;;;1.00;;
64682;SDS011;51107;47.652;19.016;2023-03-23T15:50:15;0.80;;;0.80;;
64682;SDS011;51107;47.652;19.016;2023-03-23T15:52:42;1.25;;;0.93;;
64682;SDS011;51107;47.652;19.016;2023-03-23T15:55:21;0.90;;;0.70;;
64682;SDS011;51107;47.652;19.016;2023-03-23T15:57:48;1.20;;;0.80;;
64682;SDS011;51107;47.652;19.016;2023-03-23T16:00:21;0.82;;;0.73;;
64682;SDS011;51107;47.652;19.016;2023-03-23T16:02:53;1.40;;;1.00;;
64682;SDS011;51107;47.652;19.016;2023-03-23T16:05:29;1.67;;;1.08;;
64682;SDS011;51107;47.652;19.016;2023-03-23T16:07:57;2.08;;;0.98;;
64682;SDS011;51107;47.652;19.016;2023-03-23T16:10:28;4.00;;;1.00;;
64682;SDS011;51107;47.652;19.016;2023-03-23T16:12:56;3.12;;;1.00;;
64682;SDS011;51107;47.652;19.016;2023-03-23T16:15:25;1.05;;;0.95;;
64682;SDS011;51107;47.652;19.016;2023-03-23T16:17:53;1.00;;;0.90;;
64682;SDS011;51107;47.652;19.016;2023-03-23T16:20:22;2.65;;;1.20;;
64682;SDS011;51107;47.652;19.016;2023-03-23T16:22:51;2.00;;;1.25;;
64682;SDS011;51107;47.652;19.016;2023-03-23T16:25:20;1.33;;;0.95;;
64682;SDS011;51107;47.652;19.016;2023-03-23T16:27:48;1.83;;;1.02;;
64682;SDS011;51107;47.652;19.016;2023-03-23T16:30:21;2.30;;;1.23;;
64682;SDS011;51107;47.652;19.016;2023-03-23T16:32:51;1.77;;;1.20;;
64682;SDS011;51107;47.652;19.016;2023-03-23T16:35:24;1.42;;;1.27;;
64682;SDS011;51107;47.652;19.016;2023-03-23T16:37:53;3.05;;;1.77;;
64682;SDS011;51107;47.652;19.016;2023-03-23T16:40:35;2.65;;;1.62;;
64682;SDS011;51107;47.652;19.016;2023-03-23T16:43:07;2.30;;;1.48;;
64682;SDS011;51107;47.652;19.016;2023-03-23T16:45:37;3.00;;;1.87;;
64682;SDS011;51107;47.652;19.016;2023-03-23T16:48:11;3.10;;;1.75;;
64682;SDS011;51107;47.652;19.016;2023-03-23T16:50:42;3.00;;;1.50;;
64682;SDS011;51107;47.652;19.016;2023-03-23T16:53:11;3.53;;;1.95;;
64682;SDS011;51107;47.652;19.016;2023-03-23T16:55:39;2.72;;;2.00;;
64682;SDS011;51107;47.652;19.016;2023-03-23T16:58:10;4.62;;;2.15;;
64682;SDS011;51107;47.652;19.016;2023-03-23T17:00:47;1.70;;;1.48;;
64682;SDS011;51107;47.652;19.016;2023-03-23T17:03:18;5.83;;;2.03;;
64682;SDS011;51107;47.652;19.016;2023-03-23T17:05:49;5.18;;;2.20;;
64682;SDS011;51107;47.652;19.016;2023-03-23T17:08:19;8.13;;;2.95;;
64682;SDS011;51107;47.652;19.016;2023-03-23T17:10:47;6.25;;;2.55;;
64682;SDS011;51107;47.652;19.016;2023-03-23T17:13:16;18.08;;;2.72;;
64682;SDS011;51107;47.652;19.016;2023-03-23T17:15:45;6.43;;;3.62;;
64682;SDS011;51107;47.652;19.016;2023-03-23T17:18:14;26.10;;;10.55;;
64682;SDS011;51107;47.652;19.016;2023-03-23T17:20:43;27.58;;;12.32;;
64682;SDS011;51107;47.652;19.016;2023-03-23T17:23:12;18.37;;;9.18;;
64682;SDS011;51107;47.652;19.016;2023-03-23T17:25:42;10.07;;;5.15;;
64682;SDS011;51107;47.652;19.016;2023-03-23T17:28:12;9.68;;;3.67;;
64682;SDS011;51107;47.652;19.016;2023-03-23T17:30:42;5.28;;;2.62;;